createdAt,value
2023-02-28T00:01:31.514Z,68.24
2023-02-28T00:04:00.056Z,68.24
2023-02-28T00:06:28.412Z,68.38
2023-02-28T00:08:56.734Z,68.31
2023-02-28T00:11:24.679Z,68.37
2023-02-28T00:13:52.728Z,68.48
2023-02-28T00:16:23.217Z,68.31
2023-02-28T00:18:51.966Z,68.32
2023-02-28T00:21:20.971Z,68.39
2023-02-28T00:23:49.288Z,68.35
2023-02-28T00:26:17.361Z,68.31
2023-02-28T00:28:46.548Z,68.39
2023-02-28T00:31:14.614Z,68.48
2023-02-28T00:33:42.726Z,68.37
2023-02-28T00:36:12.332Z,68.44
2023-02-28T00:38:41.719Z,68.49
2023-02-28T00:41:10.299Z,68.56
2023-02-28T00:43:40.232Z,68.49
2023-02-28T00:46:09.054Z,68.59
2023-02-28T00:48:37.837Z,68.58
2023-02-28T00:51:06.180Z,68.49
2023-02-28T00:53:34.473Z,68.58
2023-02-28T00:56:02.769Z,68.54
2023-02-28T00:58:31.488Z,68.40
2023-02-28T01:00:59.444Z,68.49
2023-02-28T01:03:27.337Z,68.61
2023-02-28T01:05:55.497Z,68.51
2023-02-28T01:08:23.547Z,68.44
2023-02-28T01:10:52.537Z,68.46
2023-02-28T01:13:21.102Z,68.61
2023-02-28T01:15:55.422Z,68.46
2023-02-28T01:18:23.952Z,68.43
2023-02-28T01:20:53.488Z,68.56
2023-02-28T01:23:24.257Z,68.63
2023-02-28T01:25:52.600Z,68.63
2023-02-28T01:28:21.256Z,68.72
2023-02-28T01:30:50.969Z,68.56
2023-02-28T01:33:18.982Z,68.66
2023-02-28T01:35:47.161Z,68.60
2023-02-28T01:38:22.064Z,68.68
2023-02-28T01:40:52.028Z,68.60
2023-02-28T01:43:46.047Z,68.61
2023-02-28T01:46:14.803Z,68.45
2023-02-28T01:48:51.171Z,68.33
2023-02-28T01:51:25.914Z,68.26
2023-02-28T01:53:59.121Z,68.42
2023-02-28T01:56:31.630Z,68.55
2023-02-28T01:58:59.762Z,68.50
2023-02-28T02:01:29.168Z,68.40
2023-02-28T02:04:02.291Z,68.33
2023-02-28T02:06:43.780Z,68.50
2023-02-28T02:09:13.222Z,68.38
2023-02-28T02:11:44.710Z,68.38
2023-02-28T02:14:37.733Z,68.44
2023-02-28T02:17:42.981Z,68.51
2023-02-28T02:20:29.889Z,68.37
2023-02-28T02:23:32.979Z,68.43
2023-02-28T02:26:34.823Z,68.31
2023-02-28T02:29:32.100Z,68.44
2023-02-28T02:32:12.253Z,68.28
2023-02-28T02:35:15.028Z,68.42
2023-02-28T02:37:45.708Z,68.35
2023-02-28T02:40:15.742Z,68.31
2023-02-28T02:42:52.806Z,68.26
2023-02-28T02:45:28.925Z,68.29
2023-02-28T02:48:01.057Z,68.26
2023-02-28T02:50:38.317Z,68.22
2023-02-28T02:53:09.576Z,68.23
2023-02-28T02:55:42.374Z,68.32
2023-02-28T02:58:19.792Z,68.25
2023-02-28T03:00:54.143Z,68.05
2023-02-28T03:03:29.827Z,68.21
2023-02-28T03:06:00.374Z,68.03
2023-02-28T03:08:34.298Z,67.97
2023-02-28T03:11:05.617Z,67.95
2023-02-28T03:13:51.867Z,67.80
2023-02-28T03:16:50.973Z,67.64
2023-02-28T03:19:37.746Z,67.63
2023-02-28T03:22:20.958Z,67.69
2023-02-28T03:25:06.239Z,67.55
2023-02-28T03:28:02.900Z,67.55
2023-02-28T03:30:55.006Z,67.36
2023-02-28T03:33:36.828Z,67.34
2023-02-28T03:36:14.657Z,66.89
2023-02-28T03:38:51.070Z,67.13
2023-02-28T03:41:33.997Z,66.78
2023-02-28T03:44:16.430Z,65.94
2023-02-28T03:46:52.567Z,66.46
2023-02-28T03:49:25.901Z,66.62
2023-02-28T03:51:57.030Z,66.71
2023-02-28T03:54:33.513Z,66.50
2023-02-28T03:57:14.021Z,66.72
2023-02-28T03:59:47.334Z,66.59
2023-02-28T04:02:15.536Z,66.48
2023-02-28T04:04:49.643Z,66.52
2023-02-28T04:07:18.417Z,66.28
2023-02-28T04:09:46.327Z,66.27
2023-02-28T04:12:14.280Z,66.39
2023-02-28T04:14:42.132Z,66.41
2023-02-28T04:17:09.950Z,66.34
2023-02-28T04:19:37.864Z,66.36
2023-02-28T04:22:05.731Z,66.28
2023-02-28T04:24:33.603Z,66.20
2023-02-28T04:27:01.655Z,66.32
2023-02-28T04:29:33.295Z,66.23
2023-02-28T04:32:02.378Z,66.26
2023-02-28T04:34:32.426Z,66.23
2023-02-28T04:37:17.056Z,66.13
2023-02-28T04:39:45.237Z,66.21
2023-02-28T04:42:13.596Z,66.14
2023-02-28T04:44:41.815Z,66.30
2023-02-28T04:47:10.029Z,66.18
2023-02-28T04:49:38.051Z,65.96
2023-02-28T04:52:06.149Z,65.98
2023-02-28T04:54:34.080Z,66.06
2023-02-28T04:57:02.576Z,65.91
2023-02-28T04:59:30.445Z,65.98
2023-02-28T05:01:58.409Z,65.97
2023-02-28T05:04:26.625Z,65.85
2023-02-28T05:06:54.593Z,65.82
2023-02-28T05:09:22.634Z,65.89
2023-02-28T05:11:50.502Z,65.82
2023-02-28T05:14:18.448Z,65.73
2023-02-28T05:16:46.412Z,65.90
2023-02-28T05:19:14.497Z,65.88
2023-02-28T05:21:51.558Z,65.69
2023-02-28T05:24:25.895Z,65.69
2023-02-28T05:26:55.686Z,65.63
2023-02-28T05:29:23.913Z,65.82
2023-02-28T05:31:52.036Z,65.78
2023-02-28T05:34:20.049Z,65.82
2023-02-28T05:36:47.986Z,65.80
2023-02-28T05:39:16.007Z,65.78
2023-02-28T05:41:44.668Z,65.91
2023-02-28T05:44:13.518Z,66.00
2023-02-28T05:46:41.702Z,66.02
2023-02-28T05:49:09.947Z,65.86
2023-02-28T05:51:40.758Z,65.92
2023-02-28T05:54:09.296Z,65.84
2023-02-28T05:56:40.069Z,66.01
2023-02-28T05:59:08.101Z,66.03
2023-02-28T06:01:41.777Z,66.02
2023-02-28T06:04:22.301Z,66.02
2023-02-28T06:06:58.700Z,65.83
2023-02-28T06:09:26.777Z,65.80
2023-02-28T06:11:55.190Z,65.81
2023-02-28T06:14:23.030Z,65.77
2023-02-28T06:16:51.411Z,65.90
2023-02-28T06:19:19.454Z,65.82
2023-02-28T06:21:50.280Z,65.95
2023-02-28T06:24:18.208Z,65.97
2023-02-28T06:26:46.323Z,66.08
2023-02-28T06:29:18.054Z,66.00
2023-02-28T06:31:47.283Z,65.77
2023-02-28T06:34:15.913Z,65.71
2023-02-28T06:36:44.647Z,65.88
2023-02-28T06:39:12.602Z,65.82
2023-02-28T06:41:54.009Z,65.85
2023-02-28T06:44:24.372Z,65.83
2023-02-28T06:46:52.590Z,65.68
2023-02-28T06:49:20.571Z,65.66
2023-02-28T06:51:48.473Z,65.69
2023-02-28T06:54:16.449Z,65.64
2023-02-28T06:56:44.681Z,65.76
2023-02-28T06:59:12.597Z,65.72
2023-02-28T07:01:41.137Z,65.58
2023-02-28T07:04:09.259Z,65.64
2023-02-28T07:06:37.126Z,65.76
2023-02-28T07:09:05.201Z,65.63
2023-02-28T07:11:33.453Z,65.87
2023-02-28T07:14:01.376Z,65.82
2023-02-28T07:16:29.284Z,65.90
2023-02-28T07:18:57.228Z,65.63
2023-02-28T07:21:25.830Z,65.43
2023-02-28T07:23:53.774Z,65.47
2023-02-28T07:26:22.337Z,65.34
2023-02-28T07:28:50.598Z,65.28
2023-02-28T07:31:19.568Z,65.21
2023-02-28T07:33:47.719Z,65.12
2023-02-28T07:36:19.473Z,64.87
2023-02-28T07:38:51.683Z,64.88
2023-02-28T07:41:22.255Z,64.53
2023-02-28T07:43:50.520Z,64.80
2023-02-28T07:46:19.452Z,64.88
2023-02-28T07:48:47.419Z,64.46
2023-02-28T07:51:15.653Z,64.18
2023-02-28T07:53:43.593Z,64.08
2023-02-28T07:56:11.835Z,63.91
2023-02-28T07:58:39.782Z,63.79
2023-02-28T08:01:09.795Z,63.76
2023-02-28T08:03:39.627Z,63.69
2023-02-28T08:06:15.714Z,63.73
2023-02-28T08:08:43.587Z,63.59
2023-02-28T08:11:11.464Z,63.42
2023-02-28T08:13:39.517Z,63.40
2023-02-28T08:16:07.586Z,63.27
2023-02-28T08:18:35.750Z,63.05
2023-02-28T08:21:11.106Z,62.88
2023-02-28T08:23:39.644Z,62.78
2023-02-28T08:26:07.528Z,62.92
2023-02-28T08:28:35.500Z,62.72
2023-02-28T08:31:08.522Z,62.39
2023-02-28T08:33:37.204Z,62.23
2023-02-28T08:36:05.895Z,61.85
2023-02-28T08:38:33.744Z,61.84
2023-02-28T08:41:04.554Z,61.77
2023-02-28T08:43:32.527Z,61.80
2023-02-28T08:46:00.585Z,61.68
2023-02-28T08:48:30.217Z,61.59
2023-02-28T08:51:08.586Z,61.60
2023-02-28T08:53:38.262Z,61.47
2023-02-28T08:56:08.831Z,61.29
2023-02-28T08:58:36.928Z,61.24
2023-02-28T09:01:13.514Z,61.05
2023-02-28T09:03:42.854Z,61.21
2023-02-28T09:06:12.391Z,61.31
2023-02-28T09:08:41.183Z,60.99
2023-02-28T09:11:09.880Z,60.58
2023-02-28T09:13:38.997Z,60.52
2023-02-28T09:16:08.967Z,60.56
2023-02-28T09:18:38.526Z,60.48
2023-02-28T09:21:08.261Z,60.35
2023-02-28T09:23:38.956Z,60.50
2023-02-28T09:26:07.365Z,60.37
2023-02-28T09:28:35.304Z,60.38
2023-02-28T09:31:05.643Z,60.32
2023-02-28T09:33:35.295Z,60.09
2023-02-28T09:36:04.803Z,59.90
2023-02-28T09:38:32.805Z,60.02
2023-02-28T09:41:04.711Z,60.19
2023-02-28T09:43:41.201Z,59.92
2023-02-28T09:46:27.629Z,59.90
2023-02-28T09:48:57.002Z,59.76
2023-02-28T09:51:43.496Z,59.80
2023-02-28T09:54:20.680Z,59.78
2023-02-28T09:56:55.207Z,59.32
2023-02-28T09:59:47.316Z,59.15
2023-02-28T10:02:53.775Z,58.84
2023-02-28T10:05:28.051Z,58.77
2023-02-28T10:08:17.346Z,58.89
2023-02-28T10:10:49.973Z,58.66
2023-02-28T10:13:35.593Z,58.24
2023-02-28T10:16:11.131Z,58.48
2023-02-28T10:18:49.912Z,58.53
2023-02-28T10:21:36.420Z,58.41
2023-02-28T10:24:29.490Z,58.40
2023-02-28T10:27:02.103Z,58.38
2023-02-28T10:29:33.783Z,58.36
2023-02-28T10:32:04.486Z,57.62
2023-02-28T10:34:32.443Z,57.75
2023-02-28T10:37:10.501Z,58.09
2023-02-28T10:39:45.046Z,57.96
2023-02-28T10:42:42.189Z,58.01
2023-02-28T10:45:18.493Z,58.03
2023-02-28T10:48:03.765Z,58.08
2023-02-28T10:50:40.171Z,58.34
2023-02-28T10:53:36.055Z,57.99
2023-02-28T10:56:09.603Z,57.94
2023-02-28T10:59:01.581Z,57.94
2023-02-28T11:01:40.752Z,57.86
2023-02-28T11:04:19.191Z,57.80
2023-02-28T11:06:47.506Z,57.88
2023-02-28T11:09:30.070Z,57.54
2023-02-28T11:11:58.365Z,57.58
2023-02-28T11:14:35.211Z,57.63
2023-02-28T11:17:21.622Z,56.39
2023-02-28T11:19:54.228Z,56.51
2023-02-28T11:22:29.850Z,57.06
2023-02-28T11:25:02.568Z,56.99
2023-02-28T11:27:34.801Z,57.44
2023-02-28T11:30:02.944Z,57.28
2023-02-28T11:32:32.239Z,57.31
2023-02-28T11:35:12.147Z,57.36
2023-02-28T11:37:41.907Z,57.20
2023-02-28T11:40:18.220Z,57.14
2023-02-28T11:43:07.567Z,56.96
2023-02-28T11:45:57.643Z,57.08
2023-02-28T11:48:36.439Z,56.94
2023-02-28T11:51:22.878Z,56.76
2023-02-28T11:53:50.753Z,56.67
2023-02-28T11:56:31.163Z,56.71
2023-02-28T11:59:37.535Z,56.99
2023-02-28T12:02:17.557Z,56.86
2023-02-28T12:05:13.022Z,56.70
2023-02-28T12:08:09.539Z,56.75
2023-02-28T12:10:58.395Z,56.34
2023-02-28T12:13:54.375Z,56.47
2023-02-28T12:16:28.908Z,56.46
2023-02-28T12:19:12.382Z,56.35
2023-02-28T12:22:01.324Z,56.14
2023-02-28T12:24:44.187Z,56.17
2023-02-28T12:27:20.238Z,55.97
2023-02-28T12:30:15.971Z,56.10
2023-02-28T12:32:49.058Z,56.09
2023-02-28T12:35:23.045Z,56.05
2023-02-28T12:38:20.504Z,56.01
2023-02-28T12:40:55.880Z,56.07
2023-02-28T12:43:31.994Z,55.63
2023-02-28T12:46:08.664Z,55.68
2023-02-28T12:48:49.485Z,55.72
2023-02-28T12:51:18.585Z,55.73
2023-02-28T12:54:11.158Z,55.98
2023-02-28T12:56:55.330Z,55.74
2023-02-28T12:59:46.605Z,55.58
2023-02-28T13:02:29.742Z,55.55
2023-02-28T13:05:06.668Z,55.69
2023-02-28T13:07:59.462Z,55.63
2023-02-28T13:10:41.195Z,55.63
2023-02-28T13:13:16.246Z,55.53
2023-02-28T13:15:58.431Z,55.34
2023-02-28T13:19:08.895Z,55.17
2023-02-28T13:21:45.544Z,55.23
2023-02-28T13:24:33.388Z,55.37
2023-02-28T13:27:01.174Z,55.32
2023-02-28T13:29:35.185Z,55.18
2023-02-28T13:32:09.514Z,55.11
2023-02-28T13:34:40.796Z,55.25
2023-02-28T13:37:21.031Z,55.03
2023-02-28T13:39:50.116Z,54.63
2023-02-28T13:42:35.327Z,54.73
2023-02-28T13:45:03.779Z,54.95
2023-02-28T13:47:47.987Z,54.88
2023-02-28T13:50:38.514Z,55.02
2023-02-28T13:53:31.290Z,55.16
2023-02-28T13:55:59.236Z,55.17
2023-02-28T13:58:44.249Z,55.16
2023-02-28T14:01:12.099Z,54.90
2023-02-28T14:04:07.479Z,54.86
2023-02-28T14:06:37.979Z,54.91
2023-02-28T14:09:29.923Z,54.67
2023-02-28T14:11:58.744Z,54.74
2023-02-28T14:14:47.025Z,54.57
2023-02-28T14:17:17.662Z,54.70
2023-02-28T14:19:51.028Z,54.50
2023-02-28T14:22:38.092Z,54.54
2023-02-28T14:25:32.092Z,54.54
2023-02-28T14:28:31.074Z,54.79
2023-02-28T14:31:08.707Z,54.61
2023-02-28T14:33:44.543Z,54.74
2023-02-28T14:36:27.962Z,54.89
2023-02-28T14:38:58.949Z,54.84
2023-02-28T14:41:38.011Z,54.80
2023-02-28T14:44:32.951Z,54.96
2023-02-28T14:47:07.730Z,54.96
2023-02-28T14:49:39.584Z,54.93
2023-02-28T14:52:10.827Z,54.82
2023-02-28T14:54:40.343Z,54.67
2023-02-28T14:57:22.767Z,54.61
2023-02-28T15:00:04.766Z,54.29
2023-02-28T15:02:36.258Z,54.25
2023-02-28T15:05:13.361Z,54.38
2023-02-28T15:07:41.434Z,54.38
2023-02-28T15:10:25.566Z,54.37
2023-02-28T15:12:59.303Z,54.35
2023-02-28T15:15:40.308Z,54.31
2023-02-28T15:18:20.938Z,54.32
2023-02-28T15:20:49.887Z,54.24
2023-02-28T15:23:20.441Z,54.37
2023-02-28T15:25:49.336Z,54.20
2023-02-28T15:28:21.078Z,54.43
2023-02-28T15:31:01.121Z,54.16
2023-02-28T15:33:34.684Z,53.92
2023-02-28T15:36:14.584Z,53.83
2023-02-28T15:38:43.618Z,53.94
2023-02-28T15:41:36.254Z,54.14
2023-02-28T15:44:27.987Z,54.21
2023-02-28T15:47:20.375Z,54.20
2023-02-28T15:50:05.261Z,54.26
2023-02-28T15:52:42.528Z,54.25
2023-02-28T15:55:22.888Z,54.27
2023-02-28T15:57:54.197Z,54.33
2023-02-28T16:00:25.088Z,54.45
2023-02-28T16:02:53.406Z,54.54
2023-02-28T16:05:31.475Z,54.30
2023-02-28T16:08:12.402Z,54.42
2023-02-28T16:10:40.874Z,54.46
2023-02-28T16:13:14.978Z,54.48
2023-02-28T16:15:44.778Z,54.45
2023-02-28T16:18:14.127Z,54.53
2023-02-28T16:20:42.483Z,54.64
2023-02-28T16:23:10.356Z,54.73
2023-02-28T16:25:41.793Z,54.68
2023-02-28T16:28:20.576Z,54.79
2023-02-28T16:30:48.563Z,54.92
2023-02-28T16:33:16.405Z,55.00
2023-02-28T16:35:44.329Z,55.08
2023-02-28T16:38:12.594Z,55.32
2023-02-28T16:40:40.986Z,55.30
2023-02-28T16:43:18.019Z,55.44
2023-02-28T16:45:46.423Z,55.61
2023-02-28T16:48:17.771Z,55.65
2023-02-28T16:50:45.800Z,55.63
2023-02-28T16:53:14.534Z,55.75
2023-02-28T16:55:42.689Z,55.77
2023-02-28T16:58:16.345Z,55.87
2023-02-28T17:00:44.789Z,55.89
2023-02-28T17:03:33.256Z,56.08
2023-02-28T17:06:01.986Z,56.06
2023-02-28T17:08:32.923Z,56.00
2023-02-28T17:11:01.806Z,55.87
2023-02-28T17:13:29.844Z,56.01
2023-02-28T17:15:57.817Z,56.16
2023-02-28T17:18:27.600Z,56.11
2023-02-28T17:20:55.510Z,56.19
2023-02-28T17:23:23.353Z,56.36
2023-02-28T17:25:57.550Z,56.36
2023-02-28T17:28:26.033Z,56.48
2023-02-28T17:30:54.061Z,56.58
2023-02-28T17:33:22.169Z,56.48
2023-02-28T17:35:50.119Z,56.63
2023-02-28T17:38:20.718Z,56.67
2023-02-28T17:40:48.762Z,56.76
2023-02-28T17:43:16.815Z,56.81
2023-02-28T17:45:44.695Z,56.97
2023-02-28T17:48:13.454Z,57.08
2023-02-28T17:50:41.876Z,57.10
2023-02-28T17:53:10.073Z,57.15
2023-02-28T17:55:38.176Z,57.25
2023-02-28T17:58:06.236Z,57.15
2023-02-28T18:00:34.596Z,57.20
2023-02-28T18:03:02.929Z,57.26
2023-02-28T18:05:32.351Z,57.29
2023-02-28T18:08:01.434Z,57.32
2023-02-28T18:10:34.101Z,57.50
2023-02-28T18:13:02.097Z,57.55
2023-02-28T18:15:30.548Z,57.56
2023-02-28T18:17:58.561Z,57.60
2023-02-28T18:20:27.068Z,57.61
2023-02-28T18:22:55.213Z,57.79
2023-02-28T18:25:23.427Z,57.84
2023-02-28T18:27:58.065Z,57.86
2023-02-28T18:30:31.580Z,57.90
2023-02-28T18:33:01.317Z,57.99
2023-02-28T18:35:37.541Z,58.04
2023-02-28T18:38:16.606Z,57.99
2023-02-28T18:41:02.464Z,57.98
2023-02-28T18:43:32.138Z,58.06
2023-02-28T18:46:10.708Z,58.13
2023-02-28T18:48:39.294Z,58.23
2023-02-28T18:51:16.300Z,58.45
2023-02-28T18:53:44.954Z,58.52
2023-02-28T18:56:14.888Z,58.60
2023-02-28T18:58:43.456Z,58.70
2023-02-28T19:01:21.088Z,58.73
2023-02-28T19:03:50.778Z,58.80
2023-02-28T19:06:19.669Z,58.93
2023-02-28T19:08:49.280Z,58.97
2023-02-28T19:11:18.852Z,59.03
2023-02-28T19:13:47.514Z,59.04
2023-02-28T19:16:19.574Z,59.17
2023-02-28T19:18:49.257Z,59.29
2023-02-28T19:21:19.437Z,59.16
2023-02-28T19:23:48.500Z,59.17
2023-02-28T19:26:22.286Z,59.47
2023-02-28T19:28:50.561Z,59.53
2023-02-28T19:31:24.255Z,59.40
2023-02-28T19:33:53.137Z,59.56
2023-02-28T19:36:22.602Z,59.61
2023-02-28T19:38:50.826Z,59.76
2023-02-28T19:41:19.663Z,59.80
2023-02-28T19:43:47.910Z,59.77
2023-02-28T19:46:16.214Z,59.75
2023-02-28T19:48:44.897Z,59.81
2023-02-28T19:51:14.051Z,59.93
2023-02-28T19:53:42.883Z,59.81
2023-02-28T19:56:11.631Z,59.88
2023-02-28T19:58:40.048Z,59.74
2023-02-28T20:01:14.291Z,59.76
2023-02-28T20:03:42.708Z,59.82
2023-02-28T20:06:15.217Z,59.89
2023-02-28T20:08:43.419Z,59.91
2023-02-28T20:11:15.453Z,59.86
2023-02-28T20:13:44.682Z,59.98
2023-02-28T20:16:14.488Z,59.94
2023-02-28T20:18:44.308Z,59.85
2023-02-28T20:21:13.533Z,59.91
2023-02-28T20:23:41.770Z,59.99
2023-02-28T20:26:10.413Z,59.97
2023-02-28T20:28:39.801Z,59.90
2023-02-28T20:31:16.834Z,60.13
2023-02-28T20:33:46.844Z,60.09
2023-02-28T20:36:15.918Z,60.02
2023-02-28T20:38:43.966Z,60.04
2023-02-28T20:41:13.033Z,60.17
2023-02-28T20:43:41.481Z,60.06
2023-02-28T20:46:10.282Z,60.09
2023-02-28T20:48:40.582Z,60.00
2023-02-28T20:51:08.675Z,60.11
2023-02-28T20:53:36.818Z,60.26
2023-02-28T20:56:08.961Z,60.22
2023-02-28T20:58:37.790Z,60.29
2023-02-28T21:01:18.417Z,60.33
2023-02-28T21:03:52.179Z,60.46
2023-02-28T21:06:21.577Z,60.48
2023-02-28T21:08:50.174Z,60.60
2023-02-28T21:11:25.449Z,60.57
2023-02-28T21:13:54.411Z,60.61
2023-02-28T21:16:24.171Z,60.74
2023-02-28T21:18:55.151Z,60.80
2023-02-28T21:21:24.778Z,60.87
2023-02-28T21:23:52.757Z,60.74
2023-02-28T21:26:22.988Z,60.78
2023-02-28T21:28:52.036Z,60.71
2023-02-28T21:31:21.808Z,60.82
2023-02-28T21:33:50.224Z,60.80
2023-02-28T21:36:21.091Z,60.89
2023-02-28T21:38:54.296Z,60.87
2023-02-28T21:41:24.164Z,60.82
2023-02-28T21:43:53.176Z,61.03
2023-02-28T21:46:23.834Z,61.08
2023-02-28T21:48:52.201Z,61.12
2023-02-28T21:51:22.725Z,61.08
2023-02-28T21:53:50.983Z,61.18
2023-02-28T21:56:24.789Z,61.13
2023-02-28T21:59:00.456Z,61.24
2023-02-28T22:01:37.205Z,61.34
2023-02-28T22:04:08.867Z,61.37
2023-02-28T22:06:40.979Z,61.23
2023-02-28T22:09:10.047Z,61.43
2023-02-28T22:11:39.030Z,61.41
2023-02-28T22:14:09.029Z,61.53
2023-02-28T22:16:50.837Z,61.48
2023-02-28T22:19:20.974Z,61.69
2023-02-28T22:21:48.926Z,61.79
2023-02-28T22:24:20.143Z,61.76
2023-02-28T22:26:49.417Z,61.89
2023-02-28T22:29:17.439Z,61.95
2023-02-28T22:31:45.484Z,62.00
2023-02-28T22:34:13.742Z,62.19
2023-02-28T22:36:42.777Z,62.18
2023-02-28T22:39:11.313Z,62.29
2023-02-28T22:41:39.638Z,62.27
2023-02-28T22:44:07.805Z,62.26
2023-02-28T22:46:36.324Z,62.22
2023-02-28T22:49:06.083Z,62.23
2023-02-28T22:51:34.946Z,62.36
2023-02-28T22:54:03.898Z,62.36
2023-02-28T22:56:32.430Z,62.42
2023-02-28T22:59:02.028Z,62.37
2023-02-28T23:01:33.468Z,62.34
2023-02-28T23:04:01.822Z,62.37
2023-02-28T23:06:37.741Z,62.48
2023-02-28T23:09:07.716Z,62.51
2023-02-28T23:11:40.860Z,62.44
2023-02-28T23:14:12.752Z,62.52
2023-02-28T23:16:43.985Z,62.63
2023-02-28T23:19:16.374Z,62.72
2023-02-28T23:21:45.780Z,62.77
2023-02-28T23:24:15.521Z,62.80
2023-02-28T23:26:46.424Z,62.84
2023-02-28T23:29:17.549Z,62.98
2023-02-28T23:31:45.500Z,63.11
2023-02-28T23:34:15.667Z,62.98
2023-02-28T23:36:45.975Z,63.10
2023-02-28T23:39:16.803Z,63.07
2023-02-28T23:41:45.096Z,63.13
2023-02-28T23:44:16.907Z,63.26
2023-02-28T23:46:47.399Z,63.26
2023-02-28T23:49:16.315Z,63.16
2023-02-28T23:51:44.182Z,63.14
2023-02-28T23:54:12.160Z,63.16
